Mehdi Hosseini

Scout - Siah Jamegan
3 Dez 2028
Sonntag
Verarbeitung

Persönlichkeit

Anpassungsfähigkeit (3) Ehrgeiz (15) Kontroverse (6) Loyalität (1) Druck (13) Professionalität (1) Fairness (4) Temperament (11)

Profil

Trainerstil Demokratisch
Lizenz Kontinentale B
Entschlossenheit 6
Menschenführung 3
Motivation 5
Disziplin 6
Arbeitszufriedenheit
100%
Ermüdung
0%
Rolle Scout
Gehalt 11.5K p/W
Vertrag 14.03.2030

Leistung

Verhalten Gut
Trainingseffektivität
26%
Spielerentwicklung
25%
Verletzungsprävention
25%
Taktische Umsetzung
25%

Letzte Ereignisse

Spieler begutachtet jetzt
Nahm an einer Scouting-Besprechung teil jetzt
Empfahl ein Transferziel jetzt
Empfahl ein Transferziel jetzt
Spieler begutachtet 7T her
Spieler begutachtet 7T her
Spieler begutachtet 7T her
Spieler begutachtet 7T her

Aktuell beobachtet

77
Spieler Verein Status Fähigkeit Vertrauen Beobachtet Zuletzt beobachtet Letzte Stimme
Agustín Gallo Tristán Suárez Aktiv 114 / 104 40% 4 01.12.2028 -
Enzo González Defensores Aktiv 102 / 117 40% 5 01.12.2028 -
Ronny Maza Aragua Aktiv 99 / 90 40% 1 01.12.2028 -
Alejo Cruz Juventud Aktiv 118 / 117 40% 4 28.11.2028 -
Camilo Machado Madryn Aktiv 113 / 96 40% 3 28.11.2028 -
Alexander Díaz Deportivo Riestra Aktiv 132 / 115 40% 1 28.11.2028 -
Sebastián Marfort Racing Aktiv 102 / 94 40% 2 27.11.2028 -
Sebastián Castillo Deportivo La Guaira Aktiv 119 / 116 40% 1 27.11.2028 -
Salomon Ramirez Atletico Venezuela Aktiv 103 / 93 40% 1 27.11.2028 -
Maclyn Biokpo Jenewari Rivers United Aktiv 105 / 92 40% 3 26.11.2028 -
Gianluca Pugliese Güemes Aktiv 120 / 113 40% 2 26.11.2028 -
Ibrahim Yahaya Barau Aktiv 106 / 89 40% 1 26.11.2028 -
Chukwudi Okoro Warri Wolves Aktiv 94 / 69 40% 1 25.11.2028 -
Nicolás González Cerro Largo Aktiv 110 / 101 40% 1 25.11.2028 -
Chineme Chinonso Ikorodu City Aktiv 93 / 95 40% 2 23.11.2028 -
Jerónimo Porto Lapegüe San Telmo Aktiv 106 / 100 40% 2 23.11.2028 -
Lisandro Cabrera Maipú Aktiv 115 / 119 40% 4 21.11.2028 -
Kingsley Maduforo Enyimba Aktiv 99 / 107 40% 2 21.11.2028 -
Sebastián de Marco Fenix Aktiv 108 / 94 40% 1 21.11.2028 -
Ganiyu Wasiu Shooting Stars Aktiv 82 / 71 40% 2 20.11.2028 -
Marco Miori Alvarado Aktiv 113 / 111 40% 1 20.11.2028 -
Abubakar Garba Nasarawa United Aktiv 97 / 93 40% 1 20.11.2028 -
Santiago Sala Güemes Aktiv 119 / 122 40% 2 19.11.2028 -
Chukwuemeka Obioma Abia Warriors Aktiv 96 / 111 40% 2 19.11.2028 -
Joaquín Zappacosta Morón Aktiv 94 / 108 40% 1 19.11.2028 -
Joseph Arumala Ikorodu City Aktiv 97 / 103 40% 4 18.11.2028 -
Augusto Berrondo Tristán Suárez Aktiv 107 / 99 40% 2 18.11.2028 -
Kabiru Abdullahi Barau Aktiv 101 / 90 40% 2 17.11.2028 -
Alexander González Cerro Aktiv 111 / 120 40% 1 17.11.2028 -
Auwalu Ali Malam Kano Pillars Aktiv 102 / 96 40% 1 17.11.2028 -
Renzo Reynaga Patronato Aktiv 110 / 110 40% 2 13.11.2028 -
Emiliano Gómez Boston River Aktiv 125 / 123 40% 1 13.11.2028 -
Facundo Krüger Temperley Aktiv 120 / 126 40% 3 10.11.2028 -
Ignacio Yepez Cerrito Aktiv 120 / 122 40% 1 10.11.2028 -
Facundo de León Progreso Aktiv 115 / 123 40% 1 10.11.2028 -
Junior Paredes Trujillanos Aktiv 105 / 111 40% 2 09.11.2028 -
Francisco Bonfiglio Boston River Aktiv 117 / 121 40% 1 09.11.2028 -
Umar Ada Nasarawa United Aktiv 96 / 106 40% 1 09.11.2028 -
Rafael Moreno Atletico Venezuela Aktiv 118 / 113 40% 2 07.11.2028 -
Daniel Barrea Godoy Cruz Aktiv 133 / 127 40% 5 07.11.2028 -
Clemente Montes Santiago Wanderers Aktiv 123 / 123 40% 1 05.11.2028 -
Ismail Sarki Niger Tornadoes Aktiv 85 / 102 40% 2 04.11.2028 -
Juan Rocca Gimnasia y Tiro Aktiv 103 / 115 40% 1 04.11.2028 -
Samuel Anakwe Remo Stars Aktiv 89 / 96 40% 1 04.11.2028 -
Eshimitu Gomino Eya Nasarawa United Aktiv 95 / 80 40% 1 03.11.2028 -
Jeriel De Santis Caracas Aktiv 102 / 116 40% 1 03.11.2028 -
Mauricio Márquez Caracas Aktiv 105 / 97 40% 1 02.11.2028 -
Esteban Obregón Montevideo City Torque Aktiv 127 / 122 40% 2 01.11.2028 -
Alao Dabani Nasarawa United Aktiv 85 / 110 40% 1 01.11.2028 -
Tomás Blanco Estudiantes Aktiv 109 / 116 40% 1 01.11.2028 -
Maren Kefas Plateau United Aktiv 104 / 113 40% 1 29.10.2028 -
Waheed Adebayo Rangers International Aktiv 83 / 81 40% 1 29.10.2028 -
Juan Peinipil Madryn Aktiv 105 / 100 40% 1 26.10.2028 -
Mauro Valiente Estudiantes Aktiv 119 / 112 40% 1 25.10.2028 -
Juan David Rueda Alianza Petrolera Aktiv 119 / 104 40% 1 25.10.2028 -
David Maguicha Atlanta Aktiv 92 / 91 40% 1 22.10.2028 -
Cristian Barros Cerro Aktiv 108 / 95 40% 1 17.10.2028 -
César Magallan Estudiantes de Merida Aktiv 107 / 116 40% 2 16.10.2028 -
Suraju Lawal Remo Stars Aktiv 89 / 105 40% 1 16.10.2028 -
Agustín Rodríguez Juventud Aktiv 133 / 123 40% 1 14.10.2028 -
Adeshina Gata Kwara United Aktiv 87 / 92 40% 1 12.10.2028 -
Álvaro López Plaza Colonia Aktiv 122 / 113 40% 1 12.10.2028 -
Augustine Nwaorisa Enyimba Aktiv 106 / 80 40% 1 12.10.2028 -
Stanley Amon Bayelsa United Aktiv 101 / 99 40% 1 11.10.2028 -
Nahuel da Silva Montevideo City Torque Aktiv 102 / 106 40% 1 09.10.2028 -
Esteban da Silva Racing Aktiv 114 / 114 40% 1 06.10.2028 -
Renzo Conechny Tristán Suárez Aktiv 115 / 109 40% 1 05.10.2028 -
Walter Núñez Montevideo City Torque Aktiv 121 / 123 40% 1 05.10.2028 -
Ronaldo Peña Deportivo Lara Aktiv 104 / 97 40% 1 03.10.2028 -
Uche Collins Bendel Insurance Aktiv 94 / 110 40% 1 02.10.2028 -
Facundo Milán Central Espanol Aktiv 106 / 101 40% 1 02.10.2028 -
Amir Torabi Zob Ahan Aktiv 78 / 92 69% 1 21.08.2028 Befürworten
Kimarni Smith Newport County Aktiv 113 / 97 40% 1 08.08.2028 -
Stephen Humphrys Bradford City Aktiv 122 / 116 40% 1 08.08.2028 -
Seidu Basit Ashanti Gold Aktiv 108 / 103 40% 1 31.05.2028 -
Reza Nekounam Rah Ahan Aktiv 128 / 128 42% 1 / 1m 01.03.2028 -
Roham Mohammad Taghizadeh Persepolis Aktiv 87 / 75 69% 1 17.01.2028 Befürworten